createdAt,value
2023-02-18T00:00:23.654Z,0.30
2023-02-18T00:02:52.541Z,0.20
2023-02-18T00:05:19.425Z,0.30
2023-02-18T00:07:46.128Z,0.25
2023-02-18T00:10:14.427Z,0.30
2023-02-18T00:12:41.264Z,0.20
2023-02-18T00:15:08.313Z,0.30
2023-02-18T00:17:34.928Z,0.20
2023-02-18T00:20:01.474Z,0.28
2023-02-18T00:22:28.668Z,0.20
2023-02-18T00:24:55.247Z,0.30
2023-02-18T00:27:21.825Z,0.22
2023-02-18T00:29:48.366Z,0.30
2023-02-18T00:32:14.962Z,0.28
2023-02-18T00:34:41.604Z,0.28
2023-02-18T00:37:08.214Z,0.20
2023-02-18T00:39:34.810Z,0.30
2023-02-18T00:42:01.397Z,0.20
2023-02-18T00:44:28.219Z,0.20
2023-02-18T00:46:54.820Z,0.30
2023-02-18T00:49:21.409Z,0.30
2023-02-18T00:51:48.007Z,0.27
2023-02-18T00:54:14.594Z,0.20
2023-02-18T00:56:41.144Z,0.30
2023-02-18T00:59:07.774Z,0.22
2023-02-18T01:01:35.233Z,0.30
2023-02-18T01:04:02.093Z,0.20
2023-02-18T01:06:28.686Z,0.30
2023-02-18T01:08:55.350Z,0.30
2023-02-18T01:11:22.066Z,0.20
2023-02-18T01:13:48.899Z,0.20
2023-02-18T01:16:16.988Z,0.20
2023-02-18T01:18:43.737Z,0.20
2023-02-18T01:21:10.779Z,0.30
2023-02-18T01:23:41.455Z,0.30
2023-02-18T01:26:09.477Z,0.20
2023-02-18T01:28:36.752Z,0.40
2023-02-18T01:31:11.865Z,0.30
2023-02-18T01:33:39.064Z,0.30
2023-02-18T01:36:07.430Z,0.30
2023-02-18T01:38:34.545Z,0.30
2023-02-18T01:41:01.462Z,0.20
2023-02-18T01:43:28.153Z,0.28
2023-02-18T01:46:00.511Z,0.30
2023-02-18T01:48:53.565Z,0.20
2023-02-18T01:51:30.130Z,0.30
2023-02-18T01:54:14.708Z,0.30
2023-02-18T01:56:50.003Z,0.30
2023-02-18T01:59:24.008Z,0.30
2023-02-18T02:01:50.852Z,0.30
2023-02-18T02:04:18.181Z,0.30
2023-02-18T02:06:44.923Z,0.40
2023-02-18T02:09:15.358Z,0.35
2023-02-18T02:12:25.856Z,0.30
2023-02-18T02:15:27.335Z,0.30
2023-02-18T02:18:02.656Z,0.30
2023-02-18T02:21:10.565Z,0.20
2023-02-18T02:24:14.060Z,0.30
2023-02-18T02:26:57.269Z,0.30
2023-02-18T02:30:12.434Z,0.43
2023-02-18T02:33:09.023Z,0.40
2023-02-18T02:35:44.312Z,0.30
2023-02-18T02:38:36.672Z,0.20
2023-02-18T02:41:27.126Z,0.47
2023-02-18T02:44:17.697Z,0.30
2023-02-18T02:46:46.967Z,0.30
2023-02-18T02:49:33.703Z,0.30
2023-02-18T02:52:07.888Z,0.20
2023-02-18T02:54:34.514Z,0.30
2023-02-18T02:57:28.622Z,0.30
2023-02-18T03:00:03.335Z,0.30
2023-02-18T03:02:41.615Z,0.37
2023-02-18T03:05:26.448Z,0.47
2023-02-18T03:08:11.142Z,0.20
2023-02-18T03:11:07.565Z,0.30
2023-02-18T03:14:13.607Z,0.20
2023-02-18T03:16:53.096Z,0.33
2023-02-18T03:19:24.682Z,0.30
2023-02-18T03:22:08.645Z,0.38
2023-02-18T03:24:41.317Z,0.30
2023-02-18T03:27:18.644Z,0.30
2023-02-18T03:29:49.028Z,0.30
2023-02-18T03:32:19.450Z,0.30
2023-02-18T03:34:50.511Z,0.30
2023-02-18T03:37:18.428Z,0.30
2023-02-18T03:39:52.571Z,0.40
2023-02-18T03:42:19.385Z,0.27
2023-02-18T03:44:46.041Z,0.40
2023-02-18T03:47:13.009Z,0.30
2023-02-18T03:49:39.567Z,0.30
2023-02-18T03:52:06.128Z,0.30
2023-02-18T03:54:32.739Z,0.30
2023-02-18T03:56:59.281Z,0.30
2023-02-18T03:59:25.856Z,0.30
2023-02-18T04:01:52.414Z,0.30
2023-02-18T04:04:19.025Z,0.30
2023-02-18T04:06:45.645Z,0.30
2023-02-18T04:09:12.197Z,0.40
2023-02-18T04:11:40.207Z,0.30
2023-02-18T04:14:07.909Z,0.30
2023-02-18T04:16:34.633Z,0.40
2023-02-18T04:19:01.199Z,0.30
2023-02-18T04:21:27.742Z,0.40
2023-02-18T04:23:54.318Z,0.30
2023-02-18T04:26:20.934Z,0.30
2023-02-18T04:28:47.497Z,0.30
2023-02-18T04:31:14.244Z,0.30
2023-02-18T04:33:41.079Z,0.30
2023-02-18T04:36:08.151Z,0.40
2023-02-18T04:38:34.929Z,0.20
2023-02-18T04:41:01.565Z,0.30
2023-02-18T04:43:28.215Z,0.30
2023-02-18T04:45:54.808Z,0.30
2023-02-18T04:48:21.433Z,0.30
2023-02-18T04:50:49.107Z,0.30
2023-02-18T04:53:15.782Z,0.32
2023-02-18T04:55:42.363Z,0.30
2023-02-18T04:58:10.570Z,0.20
2023-02-18T05:00:37.116Z,0.30
2023-02-18T05:03:03.684Z,0.30
2023-02-18T05:05:30.240Z,0.20
2023-02-18T05:07:56.811Z,0.20
2023-02-18T05:10:23.507Z,0.35
2023-02-18T05:12:50.073Z,0.30
2023-02-18T05:15:16.646Z,0.20
2023-02-18T05:17:43.190Z,0.30
2023-02-18T05:20:11.492Z,0.30
2023-02-18T05:22:38.774Z,0.20
2023-02-18T05:25:05.878Z,0.30
2023-02-18T05:27:32.433Z,0.20
2023-02-18T05:29:59.037Z,0.20
2023-02-18T05:32:25.932Z,0.20
2023-02-18T05:34:52.465Z,0.20
2023-02-18T05:37:18.997Z,0.30
2023-02-18T05:39:45.953Z,0.20
2023-02-18T05:42:12.534Z,0.20
2023-02-18T05:44:39.120Z,0.20
2023-02-18T05:47:11.276Z,0.30
2023-02-18T05:49:39.226Z,0.20
2023-02-18T05:52:06.350Z,0.25
2023-02-18T05:54:33.845Z,0.28
2023-02-18T05:57:00.997Z,0.30
2023-02-18T05:59:27.935Z,0.30
2023-02-18T06:01:54.688Z,0.20
2023-02-18T06:04:21.246Z,0.20
2023-02-18T06:06:47.805Z,0.20
2023-02-18T06:09:14.484Z,0.20
2023-02-18T06:11:41.152Z,0.20
2023-02-18T06:14:08.083Z,0.30
2023-02-18T06:16:34.983Z,0.20
2023-02-18T06:19:01.550Z,0.28
2023-02-18T06:21:28.108Z,0.20
2023-02-18T06:23:54.705Z,0.20
2023-02-18T06:26:21.327Z,0.20
2023-02-18T06:28:47.885Z,0.20
2023-02-18T06:31:15.037Z,0.30
2023-02-18T06:33:41.639Z,0.20
2023-02-18T06:36:11.578Z,0.30
2023-02-18T06:38:40.782Z,0.20
2023-02-18T06:41:07.423Z,0.20
2023-02-18T06:43:34.404Z,0.20
2023-02-18T06:46:01.078Z,0.30
2023-02-18T06:48:27.672Z,0.20
2023-02-18T06:50:54.983Z,0.20
2023-02-18T06:53:21.657Z,0.20
2023-02-18T06:55:48.440Z,0.22
2023-02-18T06:58:15.258Z,0.30
2023-02-18T07:00:42.159Z,0.20
2023-02-18T07:03:09.228Z,0.20
2023-02-18T07:05:35.813Z,0.20
2023-02-18T07:08:02.381Z,0.20
2023-02-18T07:10:29.013Z,0.30
2023-02-18T07:12:55.562Z,0.30
2023-02-18T07:15:24.322Z,0.20
2023-02-18T07:17:51.780Z,0.20
2023-02-18T07:20:20.290Z,0.30
2023-02-18T07:22:47.534Z,0.20
2023-02-18T07:25:14.763Z,0.30
2023-02-18T07:27:41.449Z,0.20
2023-02-18T07:30:08.771Z,0.30
2023-02-18T07:32:35.547Z,0.22
2023-02-18T07:35:03.155Z,0.30
2023-02-18T07:37:29.719Z,0.25
2023-02-18T07:39:56.291Z,0.20
2023-02-18T07:42:22.842Z,0.20
2023-02-18T07:44:49.394Z,0.20
2023-02-18T07:47:19.645Z,0.20
2023-02-18T07:49:47.045Z,0.28
2023-02-18T07:52:14.882Z,0.30
2023-02-18T07:54:41.931Z,0.20
2023-02-18T07:57:08.576Z,0.40
2023-02-18T07:59:35.119Z,0.23
2023-02-18T08:02:01.724Z,0.20
2023-02-18T08:04:28.386Z,0.20
2023-02-18T08:06:54.967Z,0.20
2023-02-18T08:09:21.522Z,0.20
2023-02-18T08:11:48.046Z,0.30
2023-02-18T08:14:14.608Z,0.20
2023-02-18T08:16:41.308Z,0.20
2023-02-18T08:19:08.560Z,0.20
2023-02-18T08:21:35.156Z,0.38
2023-02-18T08:24:01.708Z,0.20
2023-02-18T08:26:28.685Z,0.20
2023-02-18T08:28:55.281Z,0.20
2023-02-18T08:31:25.403Z,0.20
2023-02-18T08:33:53.829Z,0.20
2023-02-18T08:36:20.766Z,0.20
2023-02-18T08:38:47.372Z,0.20
2023-02-18T08:41:14.661Z,0.20
2023-02-18T08:43:42.572Z,0.20
2023-02-18T08:46:09.188Z,0.28
2023-02-18T08:48:43.050Z,0.10
2023-02-18T08:51:20.254Z,0.20
2023-02-18T08:53:47.271Z,0.30
2023-02-18T08:56:15.101Z,0.20
2023-02-18T08:58:42.850Z,0.30
2023-02-18T09:01:12.488Z,0.20
2023-02-18T09:03:39.777Z,0.20
2023-02-18T09:06:06.810Z,0.25
2023-02-18T09:08:33.616Z,0.30
2023-02-18T09:11:02.004Z,0.20
2023-02-18T09:13:28.677Z,0.27
2023-02-18T09:16:04.543Z,0.20
2023-02-18T09:18:32.540Z,0.20
2023-02-18T09:21:00.314Z,0.10
2023-02-18T09:23:29.182Z,0.20
2023-02-18T09:25:56.196Z,0.20
2023-02-18T09:28:23.997Z,0.20
2023-02-18T09:30:51.008Z,0.20
2023-02-18T09:33:18.560Z,0.20
2023-02-18T09:35:46.858Z,0.20
2023-02-18T09:38:16.735Z,0.20
2023-02-18T09:40:50.211Z,0.20
2023-02-18T09:43:38.798Z,0.30
2023-02-18T09:46:19.671Z,0.20
2023-02-18T09:48:48.192Z,0.20
2023-02-18T09:51:17.992Z,0.30
2023-02-18T09:53:45.844Z,0.20
2023-02-18T09:56:15.130Z,0.20
2023-02-18T09:58:43.280Z,0.20
2023-02-18T10:01:28.294Z,0.20
2023-02-18T10:03:58.569Z,0.20
2023-02-18T10:06:32.344Z,0.40
2023-02-18T10:09:04.709Z,0.20
2023-02-18T10:11:38.693Z,0.20
2023-02-18T10:14:10.936Z,0.20
2023-02-18T10:16:37.838Z,0.17
2023-02-18T10:19:12.793Z,0.40
2023-02-18T10:21:39.459Z,0.28
2023-02-18T10:24:25.445Z,0.20
2023-02-18T10:26:52.551Z,0.30
2023-02-18T10:29:21.843Z,0.20
2023-02-18T10:31:57.711Z,0.30
2023-02-18T10:34:45.903Z,0.20
2023-02-18T10:37:51.760Z,0.20
2023-02-18T10:40:24.174Z,0.20
2023-02-18T10:43:09.272Z,0.20
2023-02-18T10:45:50.795Z,0.20
2023-02-18T10:48:35.584Z,0.20
2023-02-18T10:51:14.750Z,0.22
2023-02-18T10:53:44.036Z,0.20
2023-02-18T10:56:33.364Z,0.20
2023-02-18T10:59:12.286Z,0.17
2023-02-18T11:01:40.728Z,0.20
2023-02-18T11:04:17.924Z,0.20
2023-02-18T11:06:47.160Z,0.20
2023-02-18T11:09:39.477Z,0.20
2023-02-18T11:12:20.474Z,0.20
2023-02-18T11:14:50.342Z,0.20
2023-02-18T11:17:26.237Z,0.20
2023-02-18T11:19:59.220Z,0.20
2023-02-18T11:22:33.164Z,0.20
2023-02-18T11:25:02.202Z,0.40
2023-02-18T11:27:39.632Z,0.40
2023-02-18T11:30:28.182Z,0.30
2023-02-18T11:32:59.708Z,0.30
2023-02-18T11:35:29.867Z,0.30
2023-02-18T11:37:58.753Z,0.32
2023-02-18T11:40:31.185Z,0.52
2023-02-18T11:43:16.368Z,0.30
2023-02-18T11:45:43.169Z,0.30
2023-02-18T11:48:24.048Z,0.35
2023-02-18T11:50:53.137Z,0.10
2023-02-18T11:53:59.543Z,0.25
2023-02-18T11:56:28.688Z,0.20
2023-02-18T11:58:56.161Z,0.50
2023-02-18T12:01:37.442Z,0.30
2023-02-18T12:04:29.245Z,0.20
2023-02-18T12:07:05.410Z,0.20
2023-02-18T12:09:37.959Z,0.30
2023-02-18T12:12:15.907Z,0.28
2023-02-18T12:14:43.603Z,0.30
2023-02-18T12:17:34.839Z,0.20
2023-02-18T12:20:32.275Z,0.20
2023-02-18T12:23:18.498Z,0.20
2023-02-18T12:25:45.060Z,0.50
2023-02-18T12:28:30.096Z,0.20
2023-02-18T12:31:11.571Z,0.30
2023-02-18T12:34:19.525Z,0.35
2023-02-18T12:37:01.789Z,0.20
2023-02-18T12:39:36.030Z,0.20
2023-02-18T12:42:10.359Z,0.20
2023-02-18T12:44:55.172Z,0.20
2023-02-18T12:47:46.018Z,0.22
2023-02-18T12:50:40.063Z,0.20
2023-02-18T12:53:25.884Z,0.10
2023-02-18T12:55:52.417Z,0.10
2023-02-18T12:58:45.241Z,0.28
2023-02-18T13:01:17.643Z,0.20
2023-02-18T13:03:46.872Z,0.25
2023-02-18T13:06:52.305Z,0.20
2023-02-18T13:09:43.800Z,0.20
2023-02-18T13:12:19.969Z,0.20
2023-02-18T13:15:00.801Z,0.30
2023-02-18T13:17:31.865Z,0.20
2023-02-18T13:20:20.030Z,0.10
2023-02-18T13:22:50.294Z,0.13
2023-02-18T13:25:19.382Z,0.30
2023-02-18T13:27:48.501Z,0.20
2023-02-18T13:30:31.339Z,0.20
2023-02-18T13:33:11.456Z,0.22
2023-02-18T13:36:11.254Z,0.20
2023-02-18T13:38:46.791Z,0.20
2023-02-18T13:41:13.430Z,0.20
2023-02-18T13:43:40.159Z,0.20
2023-02-18T13:46:11.076Z,0.20
2023-02-18T13:49:00.706Z,0.20
2023-02-18T13:51:31.359Z,0.20
2023-02-18T13:54:26.195Z,0.20
2023-02-18T13:57:03.581Z,0.20
2023-02-18T14:00:04.438Z,0.20
2023-02-18T14:02:36.753Z,0.20
2023-02-18T14:05:09.370Z,0.20
2023-02-18T14:07:36.187Z,0.30
2023-02-18T14:10:13.553Z,0.20
2023-02-18T14:12:42.575Z,0.20
2023-02-18T14:15:18.180Z,0.10
2023-02-18T14:17:49.331Z,0.20
2023-02-18T14:20:21.661Z,0.20
2023-02-18T14:22:52.846Z,0.20
2023-02-18T14:25:38.414Z,0.20
2023-02-18T14:28:33.890Z,0.17
2023-02-18T14:31:22.161Z,0.20
2023-02-18T14:34:30.380Z,0.20
2023-02-18T14:37:11.971Z,0.20
2023-02-18T14:39:47.530Z,0.10
2023-02-18T14:42:20.710Z,0.20
2023-02-18T14:45:00.237Z,0.17
2023-02-18T14:47:39.778Z,0.20
2023-02-18T14:50:13.724Z,0.20
2023-02-18T14:52:47.451Z,0.20
2023-02-18T14:55:29.258Z,0.20
2023-02-18T14:58:02.111Z,0.20
2023-02-18T15:00:33.985Z,0.13
2023-02-18T15:03:01.884Z,0.15
2023-02-18T15:05:32.954Z,0.10
2023-02-18T15:08:00.987Z,0.20
2023-02-18T15:10:51.741Z,0.10
2023-02-18T15:13:23.878Z,0.20
2023-02-18T15:15:55.183Z,0.20
2023-02-18T15:18:27.000Z,0.20
2023-02-18T15:20:53.933Z,0.20
2023-02-18T15:23:20.648Z,0.20
2023-02-18T15:25:51.874Z,0.10
2023-02-18T15:28:30.531Z,0.10
2023-02-18T15:30:59.115Z,0.20
2023-02-18T15:33:26.903Z,0.20
2023-02-18T15:36:02.248Z,0.20
2023-02-18T15:38:29.082Z,0.10
2023-02-18T15:40:55.881Z,0.20
2023-02-18T15:43:25.163Z,0.20
2023-02-18T15:45:54.759Z,0.13
2023-02-18T15:48:45.202Z,0.10
2023-02-18T15:51:17.953Z,0.10
2023-02-18T15:53:48.928Z,0.10
2023-02-18T15:56:21.775Z,0.10
2023-02-18T15:58:48.444Z,0.10
2023-02-18T16:01:28.171Z,0.10
2023-02-18T16:03:56.267Z,0.10
2023-02-18T16:06:26.078Z,0.10
2023-02-18T16:09:17.050Z,0.10
2023-02-18T16:11:47.392Z,0.10
2023-02-18T16:14:24.183Z,0.20
2023-02-18T16:17:21.956Z,0.10
2023-02-18T16:20:03.337Z,0.10
2023-02-18T16:22:35.035Z,0.10
2023-02-18T16:25:07.391Z,0.10
2023-02-18T16:27:37.316Z,0.10
2023-02-18T16:30:26.032Z,0.10
2023-02-18T16:32:53.138Z,0.10
2023-02-18T16:35:20.227Z,0.10
2023-02-18T16:37:50.087Z,0.20
2023-02-18T16:40:35.281Z,0.10
2023-02-18T16:43:10.175Z,0.10
2023-02-18T16:45:42.332Z,0.10
2023-02-18T16:48:17.915Z,0.10
2023-02-18T16:50:44.652Z,0.10
2023-02-18T16:53:13.758Z,0.10
2023-02-18T16:55:40.630Z,0.10
2023-02-18T16:58:07.199Z,0.10
2023-02-18T17:00:33.969Z,0.10
2023-02-18T17:03:01.440Z,0.10
2023-02-18T17:05:31.380Z,0.10
2023-02-18T17:08:25.207Z,0.10
2023-02-18T17:10:54.835Z,0.10
2023-02-18T17:13:24.797Z,0.10
2023-02-18T17:15:53.804Z,0.17
2023-02-18T17:18:20.633Z,0.10
2023-02-18T17:20:48.952Z,0.10
2023-02-18T17:23:17.030Z,0.10
2023-02-18T17:25:45.541Z,0.10
2023-02-18T17:28:12.331Z,0.10
2023-02-18T17:30:41.574Z,0.15
2023-02-18T17:33:11.444Z,0.10
2023-02-18T17:35:37.978Z,0.10
2023-02-18T17:38:13.012Z,0.10
2023-02-18T17:40:39.601Z,0.10
2023-02-18T17:43:06.197Z,0.10
2023-02-18T17:45:43.463Z,0.10
2023-02-18T17:48:10.061Z,0.15
2023-02-18T17:50:36.634Z,0.10
2023-02-18T17:53:03.217Z,0.10
2023-02-18T17:55:32.180Z,0.10
2023-02-18T17:57:59.334Z,0.10
2023-02-18T18:00:28.966Z,0.10
2023-02-18T18:02:55.782Z,0.10
2023-02-18T18:05:34.244Z,0.10
2023-02-18T18:08:01.733Z,0.10
2023-02-18T18:10:32.144Z,0.10
2023-02-18T18:13:00.711Z,0.10
2023-02-18T18:15:30.776Z,0.10
2023-02-18T18:17:58.444Z,0.10
2023-02-18T18:20:26.654Z,0.03
2023-02-18T18:22:55.519Z,0.10
2023-02-18T18:25:27.941Z,0.10
2023-02-18T18:27:54.626Z,0.10
2023-02-18T18:30:27.645Z,0.10
2023-02-18T18:32:54.319Z,0.10
2023-02-18T18:35:31.022Z,0.10
2023-02-18T18:37:58.646Z,0.10
2023-02-18T18:40:28.321Z,0.10
2023-02-18T18:42:56.380Z,0.10
2023-02-18T18:45:30.394Z,0.10
2023-02-18T18:47:57.545Z,0.10
2023-02-18T18:50:25.368Z,0.10
2023-02-18T18:52:52.990Z,0.10
2023-02-18T18:55:27.381Z,0.10
2023-02-18T18:57:55.796Z,0.10
2023-02-18T19:00:32.595Z,0.10
2023-02-18T19:03:00.177Z,0.00
2023-02-18T19:05:33.640Z,0.10
2023-02-18T19:08:01.345Z,0.10
2023-02-18T19:10:52.964Z,0.10
2023-02-18T19:13:25.053Z,0.17
2023-02-18T19:16:00.825Z,0.20
2023-02-18T19:18:27.996Z,0.10
2023-02-18T19:20:54.598Z,0.10
2023-02-18T19:23:21.154Z,0.10
2023-02-18T19:25:47.698Z,0.10
2023-02-18T19:28:14.254Z,0.10
2023-02-18T19:30:44.212Z,0.10
2023-02-18T19:33:13.597Z,0.10
2023-02-18T19:35:41.499Z,0.10
2023-02-18T19:38:12.141Z,0.20
2023-02-18T19:40:39.415Z,0.10
2023-02-18T19:43:07.018Z,0.10
2023-02-18T19:45:34.366Z,0.10
2023-02-18T19:48:01.429Z,0.10
2023-02-18T19:50:32.190Z,0.10
2023-02-18T19:52:59.182Z,0.10
2023-02-18T19:55:26.208Z,0.10
2023-02-18T19:57:53.686Z,0.10
2023-02-18T20:00:22.559Z,0.10
2023-02-18T20:02:50.241Z,0.15
2023-02-18T20:05:17.551Z,0.10
2023-02-18T20:07:46.723Z,0.10
2023-02-18T20:10:17.427Z,0.10
2023-02-18T20:12:44.110Z,0.10
2023-02-18T20:15:11.124Z,0.10
2023-02-18T20:17:39.385Z,0.10
2023-02-18T20:20:07.079Z,0.10
2023-02-18T20:22:34.190Z,0.10
2023-02-18T20:25:00.797Z,0.10
2023-02-18T20:27:27.392Z,0.15
2023-02-18T20:29:53.932Z,0.10
2023-02-18T20:32:20.548Z,0.10
2023-02-18T20:34:47.276Z,0.10
2023-02-18T20:37:13.846Z,0.10
2023-02-18T20:39:40.533Z,0.10
2023-02-18T20:42:15.960Z,0.10
2023-02-18T20:44:43.940Z,0.10
2023-02-18T20:47:12.844Z,0.00
2023-02-18T20:49:40.524Z,0.10
2023-02-18T20:52:09.370Z,0.10
2023-02-18T20:54:36.630Z,0.10
2023-02-18T20:57:03.477Z,0.10
2023-02-18T20:59:35.085Z,0.10
2023-02-18T21:02:01.888Z,0.10
2023-02-18T21:04:29.193Z,0.10
2023-02-18T21:06:55.760Z,0.10
2023-02-18T21:09:22.403Z,0.17
2023-02-18T21:11:49.246Z,0.10
2023-02-18T21:14:15.938Z,0.20
2023-02-18T21:16:42.724Z,0.20
2023-02-18T21:19:13.157Z,0.10
2023-02-18T21:21:39.992Z,0.10
2023-02-18T21:24:06.652Z,0.10
2023-02-18T21:26:33.426Z,0.10
2023-02-18T21:29:02.227Z,0.15
2023-02-18T21:31:34.726Z,0.10
2023-02-18T21:34:02.344Z,0.20
2023-02-18T21:36:30.675Z,0.10
2023-02-18T21:38:59.869Z,0.10
2023-02-18T21:41:27.156Z,0.10
2023-02-18T21:43:53.789Z,0.10
2023-02-18T21:46:26.145Z,0.20
2023-02-18T21:49:02.211Z,0.10
2023-02-18T21:51:48.728Z,0.10
2023-02-18T21:54:16.825Z,0.20
2023-02-18T21:56:43.478Z,0.10
2023-02-18T21:59:10.043Z,0.10
2023-02-18T22:01:36.663Z,0.20
2023-02-18T22:04:03.373Z,0.17
2023-02-18T22:06:30.050Z,0.10
2023-02-18T22:08:56.608Z,0.10
2023-02-18T22:11:23.191Z,0.17
2023-02-18T22:13:49.770Z,0.20
2023-02-18T22:16:16.402Z,0.17
2023-02-18T22:18:43.009Z,0.20
2023-02-18T22:21:10.201Z,0.20
2023-02-18T22:23:36.981Z,0.20
2023-02-18T22:26:08.951Z,0.20
2023-02-18T22:28:36.220Z,0.20
2023-02-18T22:31:07.707Z,0.30
2023-02-18T22:33:34.452Z,0.10
2023-02-18T22:36:03.229Z,0.20
2023-02-18T22:38:29.926Z,0.10
2023-02-18T22:40:56.503Z,0.13
2023-02-18T22:43:23.042Z,0.17
2023-02-18T22:45:49.589Z,0.10
2023-02-18T22:48:18.312Z,0.20
2023-02-18T22:50:46.239Z,0.53
2023-02-18T22:53:12.794Z,0.20
2023-02-18T22:55:39.367Z,0.10
2023-02-18T22:58:05.922Z,0.20
2023-02-18T23:00:32.463Z,0.20
2023-02-18T23:02:59.032Z,0.30
2023-02-18T23:05:25.608Z,0.10
2023-02-18T23:07:52.155Z,0.20
2023-02-18T23:10:18.799Z,0.30
2023-02-18T23:12:45.385Z,0.20
2023-02-18T23:15:14.114Z,0.20
2023-02-18T23:17:40.783Z,0.20
2023-02-18T23:20:07.587Z,0.20
2023-02-18T23:22:34.148Z,0.13
2023-02-18T23:25:02.067Z,0.20
2023-02-18T23:27:29.170Z,0.10
2023-02-18T23:29:56.515Z,0.20
2023-02-18T23:32:23.240Z,0.20
2023-02-18T23:34:51.204Z,0.20
2023-02-18T23:37:17.931Z,0.20
2023-02-18T23:39:45.794Z,0.20
2023-02-18T23:42:13.165Z,0.10
2023-02-18T23:44:39.759Z,0.20
2023-02-18T23:47:06.374Z,0.20
2023-02-18T23:49:32.930Z,0.20
2023-02-18T23:51:59.763Z,0.20
2023-02-18T23:54:26.389Z,0.20
2023-02-18T23:56:53.150Z,0.20
2023-02-18T23:59:19.721Z,0.30
